sensor_id;sensor_type;location;lat;lon;timestamp;P1;durP1;ratioP1;P2;durP2;ratioP2
24163;SDS011;12319;49.204;8.116;2023-06-22T00:01:18;5.93;;;4.47;;
24163;SDS011;12319;49.204;8.116;2023-06-22T00:03:44;5.85;;;4.22;;
24163;SDS011;12319;49.204;8.116;2023-06-22T00:06:10;6.50;;;4.32;;
24163;SDS011;12319;49.204;8.116;2023-06-22T00:08:36;5.97;;;4.30;;
24163;SDS011;12319;49.204;8.116;2023-06-22T00:11:01;6.13;;;4.30;;
24163;SDS011;12319;49.204;8.116;2023-06-22T00:13:27;5.85;;;4.20;;
24163;SDS011;12319;49.204;8.116;2023-06-22T00:15:52;5.90;;;4.40;;
24163;SDS011;12319;49.204;8.116;2023-06-22T00:18:18;5.97;;;4.60;;
24163;SDS011;12319;49.204;8.116;2023-06-22T00:20:43;6.53;;;4.90;;
24163;SDS011;12319;49.204;8.116;2023-06-22T00:23:10;5.90;;;4.63;;
24163;SDS011;12319;49.204;8.116;2023-06-22T00:25:36;6.73;;;4.60;;
24163;SDS011;12319;49.204;8.116;2023-06-22T00:28:04;9.25;;;4.65;;
24163;SDS011;12319;49.204;8.116;2023-06-22T00:30:31;6.80;;;4.47;;
24163;SDS011;12319;49.204;8.116;2023-06-22T00:32:57;6.88;;;4.97;;
24163;SDS011;12319;49.204;8.116;2023-06-22T00:35:23;6.95;;;4.80;;
24163;SDS011;12319;49.204;8.116;2023-06-22T00:37:53;8.60;;;4.35;;
24163;SDS011;12319;49.204;8.116;2023-06-22T00:40:31;7.90;;;4.60;;
24163;SDS011;12319;49.204;8.116;2023-06-22T00:42:57;5.90;;;4.30;;
24163;SDS011;12319;49.204;8.116;2023-06-22T00:45:23;6.00;;;4.40;;
24163;SDS011;12319;49.204;8.116;2023-06-22T00:47:50;6.20;;;4.40;;
24163;SDS011;12319;49.204;8.116;2023-06-22T00:50:21;6.53;;;4.32;;
24163;SDS011;12319;49.204;8.116;2023-06-22T00:52:49;6.13;;;4.30;;
24163;SDS011;12319;49.204;8.116;2023-06-22T00:55:17;6.15;;;4.28;;
24163;SDS011;12319;49.204;8.116;2023-06-22T00:57:45;5.93;;;4.33;;
24163;SDS011;12319;49.204;8.116;2023-06-22T01:00:12;6.57;;;4.70;;
24163;SDS011;12319;49.204;8.116;2023-06-22T01:02:42;5.93;;;4.55;;
24163;SDS011;12319;49.204;8.116;2023-06-22T01:05:10;7.97;;;4.00;;
24163;SDS011;12319;49.204;8.116;2023-06-22T01:07:41;6.15;;;4.47;;
24163;SDS011;12319;49.204;8.116;2023-06-22T01:16:23;5.68;;;4.32;;
24163;SDS011;12319;49.204;8.116;2023-06-22T01:18:52;6.10;;;4.50;;
24163;SDS011;12319;49.204;8.116;2023-06-22T01:21:20;6.40;;;4.43;;
24163;SDS011;12319;49.204;8.116;2023-06-22T01:24:02;7.03;;;4.93;;
24163;SDS011;12319;49.204;8.116;2023-06-22T01:29:35;7.03;;;4.70;;
24163;SDS011;12319;49.204;8.116;2023-06-22T01:32:03;6.30;;;4.40;;
24163;SDS011;12319;49.204;8.116;2023-06-22T01:34:31;5.80;;;4.32;;
24163;SDS011;12319;49.204;8.116;2023-06-22T01:36:58;5.87;;;4.53;;
24163;SDS011;12319;49.204;8.116;2023-06-22T01:39:24;6.80;;;4.72;;
24163;SDS011;12319;49.204;8.116;2023-06-22T01:41:51;8.00;;;4.40;;
24163;SDS011;12319;49.204;8.116;2023-06-22T01:44:18;6.28;;;4.80;;
24163;SDS011;12319;49.204;8.116;2023-06-22T01:46:44;6.60;;;4.70;;
24163;SDS011;12319;49.204;8.116;2023-06-22T01:49:11;6.18;;;4.68;;
24163;SDS011;12319;49.204;8.116;2023-06-22T01:51:37;6.32;;;4.85;;
24163;SDS011;12319;49.204;8.116;2023-06-22T01:54:03;6.40;;;4.87;;
24163;SDS011;12319;49.204;8.116;2023-06-22T01:56:30;5.90;;;4.30;;
24163;SDS011;12319;49.204;8.116;2023-06-22T01:59:00;8.52;;;4.88;;
24163;SDS011;12319;49.204;8.116;2023-06-22T02:01:40;5.80;;;4.30;;
24163;SDS011;12319;49.204;8.116;2023-06-22T02:04:11;6.13;;;4.40;;
24163;SDS011;12319;49.204;8.116;2023-06-22T02:06:43;6.85;;;4.78;;
24163;SDS011;12319;49.204;8.116;2023-06-22T02:09:15;6.90;;;4.90;;
24163;SDS011;12319;49.204;8.116;2023-06-22T02:11:44;6.78;;;4.63;;
24163;SDS011;12319;49.204;8.116;2023-06-22T02:14:12;7.10;;;4.82;;
24163;SDS011;12319;49.204;8.116;2023-06-22T02:16:38;7.47;;;4.60;;
24163;SDS011;12319;49.204;8.116;2023-06-22T02:19:04;6.32;;;4.18;;
24163;SDS011;12319;49.204;8.116;2023-06-22T02:21:31;7.05;;;4.68;;
24163;SDS011;12319;49.204;8.116;2023-06-22T02:23:57;6.32;;;4.60;;
24163;SDS011;12319;49.204;8.116;2023-06-22T02:26:23;7.00;;;4.70;;
24163;SDS011;12319;49.204;8.116;2023-06-22T02:28:50;6.75;;;4.47;;
24163;SDS011;12319;49.204;8.116;2023-06-22T02:31:15;6.22;;;4.82;;
24163;SDS011;12319;49.204;8.116;2023-06-22T02:33:41;6.10;;;4.70;;
24163;SDS011;12319;49.204;8.116;2023-06-22T02:36:07;5.82;;;4.43;;
24163;SDS011;12319;49.204;8.116;2023-06-22T02:38:34;6.40;;;4.67;;
24163;SDS011;12319;49.204;8.116;2023-06-22T02:41:01;6.10;;;4.65;;
24163;SDS011;12319;49.204;8.116;2023-06-22T02:43:27;8.07;;;4.80;;
24163;SDS011;12319;49.204;8.116;2023-06-22T02:45:53;7.67;;;4.87;;
24163;SDS011;12319;49.204;8.116;2023-06-22T02:48:19;7.38;;;5.07;;
24163;SDS011;12319;49.204;8.116;2023-06-22T02:50:44;6.05;;;4.60;;
24163;SDS011;12319;49.204;8.116;2023-06-22T02:53:10;6.67;;;4.60;;
24163;SDS011;12319;49.204;8.116;2023-06-22T02:55:35;6.10;;;4.67;;
24163;SDS011;12319;49.204;8.116;2023-06-22T02:58:01;6.20;;;4.60;;
24163;SDS011;12319;49.204;8.116;2023-06-22T03:00:29;5.70;;;4.68;;
24163;SDS011;12319;49.204;8.116;2023-06-22T03:02:55;6.90;;;4.55;;
24163;SDS011;12319;49.204;8.116;2023-06-22T03:05:22;6.55;;;4.63;;
24163;SDS011;12319;49.204;8.116;2023-06-22T03:07:47;7.93;;;4.80;;
24163;SDS011;12319;49.204;8.116;2023-06-22T03:10:13;6.70;;;4.47;;
24163;SDS011;12319;49.204;8.116;2023-06-22T03:12:40;6.53;;;4.70;;
24163;SDS011;12319;49.204;8.116;2023-06-22T03:15:07;7.40;;;4.43;;
24163;SDS011;12319;49.204;8.116;2023-06-22T03:17:35;7.57;;;4.28;;
24163;SDS011;12319;49.204;8.116;2023-06-22T03:20:02;7.15;;;4.25;;
24163;SDS011;12319;49.204;8.116;2023-06-22T03:22:36;7.20;;;4.95;;
24163;SDS011;12319;49.204;8.116;2023-06-22T03:25:02;6.45;;;4.97;;
24163;SDS011;12319;49.204;8.116;2023-06-22T03:27:27;7.57;;;4.90;;
24163;SDS011;12319;49.204;8.116;2023-06-22T03:29:53;6.30;;;5.03;;
24163;SDS011;12319;49.204;8.116;2023-06-22T03:32:19;6.45;;;4.57;;
24163;SDS011;12319;49.204;8.116;2023-06-22T03:34:44;6.17;;;4.87;;
24163;SDS011;12319;49.204;8.116;2023-06-22T03:37:15;7.38;;;5.07;;
24163;SDS011;12319;49.204;8.116;2023-06-22T03:39:41;6.55;;;4.90;;
24163;SDS011;12319;49.204;8.116;2023-06-22T03:42:06;6.23;;;4.63;;
24163;SDS011;12319;49.204;8.116;2023-06-22T03:44:32;6.43;;;4.95;;
24163;SDS011;12319;49.204;8.116;2023-06-22T03:46:58;6.63;;;4.37;;
24163;SDS011;12319;49.204;8.116;2023-06-22T03:49:24;7.28;;;5.07;;
24163;SDS011;12319;49.204;8.116;2023-06-22T03:51:49;7.88;;;4.53;;
24163;SDS011;12319;49.204;8.116;2023-06-22T03:54:15;6.20;;;4.90;;
24163;SDS011;12319;49.204;8.116;2023-06-22T03:56:40;5.75;;;4.63;;
24163;SDS011;12319;49.204;8.116;2023-06-22T03:59:06;6.20;;;5.30;;
24163;SDS011;12319;49.204;8.116;2023-06-22T04:01:31;6.60;;;4.87;;
24163;SDS011;12319;49.204;8.116;2023-06-22T04:03:57;7.05;;;4.88;;
24163;SDS011;12319;49.204;8.116;2023-06-22T04:06:22;7.10;;;5.40;;
24163;SDS011;12319;49.204;8.116;2023-06-22T04:08:48;6.40;;;5.20;;
24163;SDS011;12319;49.204;8.116;2023-06-22T04:11:16;6.50;;;5.10;;
24163;SDS011;12319;49.204;8.116;2023-06-22T04:13:42;6.53;;;5.15;;
24163;SDS011;12319;49.204;8.116;2023-06-22T04:16:08;6.53;;;5.10;;
24163;SDS011;12319;49.204;8.116;2023-06-22T04:18:34;6.75;;;5.20;;
24163;SDS011;12319;49.204;8.116;2023-06-22T04:20:59;6.63;;;5.20;;
24163;SDS011;12319;49.204;8.116;2023-06-22T04:23:25;7.10;;;5.23;;
24163;SDS011;12319;49.204;8.116;2023-06-22T04:25:50;7.53;;;5.60;;
24163;SDS011;12319;49.204;8.116;2023-06-22T04:28:16;9.50;;;5.43;;
24163;SDS011;12319;49.204;8.116;2023-06-22T04:30:42;6.60;;;5.50;;
24163;SDS011;12319;49.204;8.116;2023-06-22T04:33:14;7.40;;;5.88;;
24163;SDS011;12319;49.204;8.116;2023-06-22T04:35:40;7.60;;;5.47;;
24163;SDS011;12319;49.204;8.116;2023-06-22T04:38:06;7.47;;;5.78;;
24163;SDS011;12319;49.204;8.116;2023-06-22T04:40:32;7.15;;;5.78;;
24163;SDS011;12319;49.204;8.116;2023-06-22T04:42:57;7.00;;;5.03;;
24163;SDS011;12319;49.204;8.116;2023-06-22T04:45:27;6.90;;;5.55;;
24163;SDS011;12319;49.204;8.116;2023-06-22T04:47:52;7.67;;;6.43;;
24163;SDS011;12319;49.204;8.116;2023-06-22T04:50:18;7.57;;;5.82;;
24163;SDS011;12319;49.204;8.116;2023-06-22T04:52:46;6.90;;;5.40;;
24163;SDS011;12319;49.204;8.116;2023-06-22T04:55:11;8.65;;;6.10;;
24163;SDS011;12319;49.204;8.116;2023-06-22T04:57:37;7.93;;;6.13;;
24163;SDS011;12319;49.204;8.116;2023-06-22T05:00:04;7.27;;;6.00;;
24163;SDS011;12319;49.204;8.116;2023-06-22T05:02:37;10.25;;;6.10;;
24163;SDS011;12319;49.204;8.116;2023-06-22T05:05:04;7.60;;;5.93;;
24163;SDS011;12319;49.204;8.116;2023-06-22T05:07:32;8.88;;;5.90;;
24163;SDS011;12319;49.204;8.116;2023-06-22T05:09:58;7.65;;;6.22;;
24163;SDS011;12319;49.204;8.116;2023-06-22T05:12:24;7.90;;;6.00;;
24163;SDS011;12319;49.204;8.116;2023-06-22T05:14:50;7.20;;;5.90;;
24163;SDS011;12319;49.204;8.116;2023-06-22T05:17:15;9.33;;;5.83;;
24163;SDS011;12319;49.204;8.116;2023-06-22T05:19:44;7.57;;;5.85;;
24163;SDS011;12319;49.204;8.116;2023-06-22T05:22:13;7.50;;;6.22;;
24163;SDS011;12319;49.204;8.116;2023-06-22T05:24:42;7.50;;;5.80;;
24163;SDS011;12319;49.204;8.116;2023-06-22T05:27:07;8.43;;;5.88;;
24163;SDS011;12319;49.204;8.116;2023-06-22T05:29:33;7.10;;;5.78;;
24163;SDS011;12319;49.204;8.116;2023-06-22T05:32:00;9.70;;;5.88;;
24163;SDS011;12319;49.204;8.116;2023-06-22T05:34:25;8.20;;;5.67;;
24163;SDS011;12319;49.204;8.116;2023-06-22T05:36:51;7.70;;;5.57;;
24163;SDS011;12319;49.204;8.116;2023-06-22T05:39:17;7.87;;;6.17;;
24163;SDS011;12319;49.204;8.116;2023-06-22T05:41:42;7.50;;;5.70;;
24163;SDS011;12319;49.204;8.116;2023-06-22T05:44:09;7.82;;;6.25;;
24163;SDS011;12319;49.204;8.116;2023-06-22T05:46:35;7.63;;;6.38;;
24163;SDS011;12319;49.204;8.116;2023-06-22T05:49:00;8.13;;;6.00;;
24163;SDS011;12319;49.204;8.116;2023-06-22T05:51:26;7.17;;;5.63;;
24163;SDS011;12319;49.204;8.116;2023-06-22T05:53:51;8.32;;;6.18;;
24163;SDS011;12319;49.204;8.116;2023-06-22T05:56:17;9.17;;;6.37;;
24163;SDS011;12319;49.204;8.116;2023-06-22T05:58:42;7.57;;;5.68;;
24163;SDS011;12319;49.204;8.116;2023-06-22T06:01:08;8.15;;;6.15;;
24163;SDS011;12319;49.204;8.116;2023-06-22T06:03:33;9.90;;;6.20;;
24163;SDS011;12319;49.204;8.116;2023-06-22T06:06:06;7.85;;;5.88;;
24163;SDS011;12319;49.204;8.116;2023-06-22T06:08:32;6.80;;;5.65;;
24163;SDS011;12319;49.204;8.116;2023-06-22T06:10:57;7.37;;;6.10;;
24163;SDS011;12319;49.204;8.116;2023-06-22T06:13:23;8.93;;;6.05;;
24163;SDS011;12319;49.204;8.116;2023-06-22T06:15:49;7.77;;;6.00;;
24163;SDS011;12319;49.204;8.116;2023-06-22T06:18:16;6.95;;;5.90;;
24163;SDS011;12319;49.204;8.116;2023-06-22T06:20:42;7.43;;;6.03;;
24163;SDS011;12319;49.204;8.116;2023-06-22T06:23:08;7.07;;;5.67;;
24163;SDS011;12319;49.204;8.116;2023-06-22T06:25:33;6.80;;;5.50;;
24163;SDS011;12319;49.204;8.116;2023-06-22T06:27:59;6.93;;;5.60;;
24163;SDS011;12319;49.204;8.116;2023-06-22T06:30:24;7.83;;;6.03;;
24163;SDS011;12319;49.204;8.116;2023-06-22T06:32:50;7.43;;;5.75;;
24163;SDS011;12319;49.204;8.116;2023-06-22T06:35:16;6.70;;;5.88;;
24163;SDS011;12319;49.204;8.116;2023-06-22T06:37:43;6.37;;;5.50;;
24163;SDS011;12319;49.204;8.116;2023-06-22T06:40:10;6.15;;;5.20;;
24163;SDS011;12319;49.204;8.116;2023-06-22T06:42:37;7.05;;;5.60;;
24163;SDS011;12319;49.204;8.116;2023-06-22T06:45:05;9.10;;;5.80;;
24163;SDS011;12319;49.204;8.116;2023-06-22T06:47:31;7.20;;;5.40;;
24163;SDS011;12319;49.204;8.116;2023-06-22T06:49:57;8.00;;;5.40;;
24163;SDS011;12319;49.204;8.116;2023-06-22T06:52:22;6.97;;;5.63;;
24163;SDS011;12319;49.204;8.116;2023-06-22T06:54:48;7.07;;;5.55;;
24163;SDS011;12319;49.204;8.116;2023-06-22T06:57:14;7.03;;;5.33;;
24163;SDS011;12319;49.204;8.116;2023-06-22T06:59:40;7.28;;;6.13;;
24163;SDS011;12319;49.204;8.116;2023-06-22T07:02:06;7.30;;;5.43;;
24163;SDS011;12319;49.204;8.116;2023-06-22T07:04:32;7.50;;;6.15;;
24163;SDS011;12319;49.204;8.116;2023-06-22T07:06:58;8.53;;;5.27;;
24163;SDS011;12319;49.204;8.116;2023-06-22T07:09:26;7.53;;;5.53;;
24163;SDS011;12319;49.204;8.116;2023-06-22T07:11:51;6.70;;;5.50;;
24163;SDS011;12319;49.204;8.116;2023-06-22T07:14:17;8.10;;;5.50;;
24163;SDS011;12319;49.204;8.116;2023-06-22T07:16:42;6.28;;;5.07;;
24163;SDS011;12319;49.204;8.116;2023-06-22T07:19:10;5.93;;;4.90;;
24163;SDS011;12319;49.204;8.116;2023-06-22T07:21:37;8.27;;;5.55;;
24163;SDS011;12319;49.204;8.116;2023-06-22T07:24:02;6.50;;;5.67;;
24163;SDS011;12319;49.204;8.116;2023-06-22T07:26:30;6.25;;;5.13;;
24163;SDS011;12319;49.204;8.116;2023-06-22T07:28:56;6.32;;;5.55;;
24163;SDS011;12319;49.204;8.116;2023-06-22T07:31:23;8.13;;;5.30;;
24163;SDS011;12319;49.204;8.116;2023-06-22T07:33:50;6.20;;;5.57;;
24163;SDS011;12319;49.204;8.116;2023-06-22T07:36:16;6.50;;;5.03;;
24163;SDS011;12319;49.204;8.116;2023-06-22T07:38:42;6.10;;;5.25;;
24163;SDS011;12319;49.204;8.116;2023-06-22T07:41:08;6.68;;;5.07;;
24163;SDS011;12319;49.204;8.116;2023-06-22T07:43:33;6.63;;;5.47;;
24163;SDS011;12319;49.204;8.116;2023-06-22T07:46:01;6.10;;;5.32;;
24163;SDS011;12319;49.204;8.116;2023-06-22T07:48:28;6.37;;;5.17;;
24163;SDS011;12319;49.204;8.116;2023-06-22T07:50:53;6.68;;;5.47;;
24163;SDS011;12319;49.204;8.116;2023-06-22T07:53:19;6.47;;;5.40;;
24163;SDS011;12319;49.204;8.116;2023-06-22T07:55:46;6.05;;;5.03;;
24163;SDS011;12319;49.204;8.116;2023-06-22T07:58:11;6.63;;;5.53;;
24163;SDS011;12319;49.204;8.116;2023-06-22T08:00:37;5.95;;;5.18;;
24163;SDS011;12319;49.204;8.116;2023-06-22T08:03:03;6.50;;;5.00;;
24163;SDS011;12319;49.204;8.116;2023-06-22T08:05:30;5.65;;;4.63;;
24163;SDS011;12319;49.204;8.116;2023-06-22T08:07:56;6.45;;;5.03;;
24163;SDS011;12319;49.204;8.116;2023-06-22T08:10:21;6.23;;;5.17;;
24163;SDS011;12319;49.204;8.116;2023-06-22T08:12:47;6.00;;;4.90;;
24163;SDS011;12319;49.204;8.116;2023-06-22T08:15:12;6.20;;;4.53;;
24163;SDS011;12319;49.204;8.116;2023-06-22T08:17:38;6.50;;;5.10;;
24163;SDS011;12319;49.204;8.116;2023-06-22T08:20:04;6.72;;;5.18;;
24163;SDS011;12319;49.204;8.116;2023-06-22T08:22:35;6.47;;;5.13;;
24163;SDS011;12319;49.204;8.116;2023-06-22T08:25:01;6.88;;;4.97;;
24163;SDS011;12319;49.204;8.116;2023-06-22T08:27:28;6.65;;;5.00;;
24163;SDS011;12319;49.204;8.116;2023-06-22T08:29:56;7.55;;;4.95;;
24163;SDS011;12319;49.204;8.116;2023-06-22T08:32:23;6.65;;;4.80;;
24163;SDS011;12319;49.204;8.116;2023-06-22T08:34:53;7.78;;;5.03;;
24163;SDS011;12319;49.204;8.116;2023-06-22T08:37:20;6.45;;;4.80;;
24163;SDS011;12319;49.204;8.116;2023-06-22T08:39:48;6.32;;;5.05;;
24163;SDS011;12319;49.204;8.116;2023-06-22T08:42:15;6.30;;;4.80;;
24163;SDS011;12319;49.204;8.116;2023-06-22T08:44:41;6.28;;;5.00;;
24163;SDS011;12319;49.204;8.116;2023-06-22T08:47:06;8.73;;;5.30;;
24163;SDS011;12319;49.204;8.116;2023-06-22T08:49:32;6.00;;;4.50;;
24163;SDS011;12319;49.204;8.116;2023-06-22T08:51:57;7.18;;;5.22;;
24163;SDS011;12319;49.204;8.116;2023-06-22T08:54:23;6.23;;;4.90;;
24163;SDS011;12319;49.204;8.116;2023-06-22T08:56:49;6.20;;;5.55;;
24163;SDS011;12319;49.204;8.116;2023-06-22T08:59:14;6.45;;;5.43;;
24163;SDS011;12319;49.204;8.116;2023-06-22T09:01:40;8.00;;;5.63;;
24163;SDS011;12319;49.204;8.116;2023-06-22T09:04:05;6.72;;;5.05;;
24163;SDS011;12319;49.204;8.116;2023-06-22T09:06:34;7.63;;;5.20;;
24163;SDS011;12319;49.204;8.116;2023-06-22T09:08:59;7.95;;;5.22;;
24163;SDS011;12319;49.204;8.116;2023-06-22T09:11:25;6.40;;;5.20;;
24163;SDS011;12319;49.204;8.116;2023-06-22T09:13:50;8.70;;;5.37;;
24163;SDS011;12319;49.204;8.116;2023-06-22T09:16:18;6.15;;;5.22;;
24163;SDS011;12319;49.204;8.116;2023-06-22T09:18:46;6.53;;;5.30;;
24163;SDS011;12319;49.204;8.116;2023-06-22T09:21:12;6.80;;;4.93;;
24163;SDS011;12319;49.204;8.116;2023-06-22T09:23:38;6.93;;;4.60;;
24163;SDS011;12319;49.204;8.116;2023-06-22T09:26:03;7.47;;;4.93;;
24163;SDS011;12319;49.204;8.116;2023-06-22T09:28:29;8.17;;;4.97;;
24163;SDS011;12319;49.204;8.116;2023-06-22T09:30:54;7.10;;;5.07;;
24163;SDS011;12319;49.204;8.116;2023-06-22T09:33:23;7.50;;;5.47;;
24163;SDS011;12319;49.204;8.116;2023-06-22T09:35:49;6.70;;;4.88;;
24163;SDS011;12319;49.204;8.116;2023-06-22T09:38:15;6.75;;;4.65;;
24163;SDS011;12319;49.204;8.116;2023-06-22T09:40:41;7.55;;;5.43;;
24163;SDS011;12319;49.204;8.116;2023-06-22T09:43:07;6.90;;;5.13;;
24163;SDS011;12319;49.204;8.116;2023-06-22T09:45:33;6.00;;;4.78;;
24163;SDS011;12319;49.204;8.116;2023-06-22T09:47:58;8.17;;;4.90;;
24163;SDS011;12319;49.204;8.116;2023-06-22T09:50:24;6.47;;;5.07;;
24163;SDS011;12319;49.204;8.116;2023-06-22T09:52:50;8.53;;;5.03;;
24163;SDS011;12319;49.204;8.116;2023-06-22T09:55:22;6.78;;;5.50;;
24163;SDS011;12319;49.204;8.116;2023-06-22T09:57:48;7.10;;;5.47;;
24163;SDS011;12319;49.204;8.116;2023-06-22T10:00:14;10.57;;;4.97;;
24163;SDS011;12319;49.204;8.116;2023-06-22T10:02:41;7.38;;;5.43;;
24163;SDS011;12319;49.204;8.116;2023-06-22T10:05:07;6.50;;;4.90;;
24163;SDS011;12319;49.204;8.116;2023-06-22T10:07:33;7.77;;;5.37;;
24163;SDS011;12319;49.204;8.116;2023-06-22T10:09:59;7.13;;;4.85;;
24163;SDS011;12319;49.204;8.116;2023-06-22T10:12:27;7.03;;;4.50;;
24163;SDS011;12319;49.204;8.116;2023-06-22T10:14:52;7.68;;;5.32;;
24163;SDS011;12319;49.204;8.116;2023-06-22T10:17:18;7.40;;;5.17;;
24163;SDS011;12319;49.204;8.116;2023-06-22T10:19:43;7.57;;;4.72;;
24163;SDS011;12319;49.204;8.116;2023-06-22T10:22:09;6.67;;;5.10;;
24163;SDS011;12319;49.204;8.116;2023-06-22T10:24:34;6.30;;;4.53;;
24163;SDS011;12319;49.204;8.116;2023-06-22T10:27:00;7.82;;;4.88;;
24163;SDS011;12319;49.204;8.116;2023-06-22T10:29:26;6.20;;;4.47;;
24163;SDS011;12319;49.204;8.116;2023-06-22T10:31:51;7.22;;;4.72;;
24163;SDS011;12319;49.204;8.116;2023-06-22T10:34:17;8.07;;;4.63;;
24163;SDS011;12319;49.204;8.116;2023-06-22T10:36:42;8.43;;;5.10;;
24163;SDS011;12319;49.204;8.116;2023-06-22T10:39:11;6.82;;;4.97;;
24163;SDS011;12319;49.204;8.116;2023-06-22T10:41:36;6.65;;;4.80;;
24163;SDS011;12319;49.204;8.116;2023-06-22T10:44:02;7.03;;;5.00;;
24163;SDS011;12319;49.204;8.116;2023-06-22T10:46:27;6.93;;;4.77;;
24163;SDS011;12319;49.204;8.116;2023-06-22T10:48:53;7.25;;;4.82;;
24163;SDS011;12319;49.204;8.116;2023-06-22T10:51:23;7.90;;;5.10;;
24163;SDS011;12319;49.204;8.116;2023-06-22T10:53:50;7.22;;;5.20;;
24163;SDS011;12319;49.204;8.116;2023-06-22T10:56:16;8.10;;;4.95;;
24163;SDS011;12319;49.204;8.116;2023-06-22T10:58:44;6.90;;;5.03;;
24163;SDS011;12319;49.204;8.116;2023-06-22T11:01:10;7.50;;;5.10;;
24163;SDS011;12319;49.204;8.116;2023-06-22T11:03:36;6.78;;;5.00;;
24163;SDS011;12319;49.204;8.116;2023-06-22T11:06:01;8.33;;;5.50;;
24163;SDS011;12319;49.204;8.116;2023-06-22T11:08:27;7.18;;;5.05;;
24163;SDS011;12319;49.204;8.116;2023-06-22T11:10:52;7.50;;;5.18;;
24163;SDS011;12319;49.204;8.116;2023-06-22T11:13:18;7.07;;;5.17;;
24163;SDS011;12319;49.204;8.116;2023-06-22T11:15:43;6.47;;;4.87;;
24163;SDS011;12319;49.204;8.116;2023-06-22T11:18:09;8.18;;;5.15;;
24163;SDS011;12319;49.204;8.116;2023-06-22T11:20:35;7.83;;;5.70;;
24163;SDS011;12319;49.204;8.116;2023-06-22T11:23:03;7.80;;;5.80;;
24163;SDS011;12319;49.204;8.116;2023-06-22T11:25:31;7.55;;;5.40;;
24163;SDS011;12319;49.204;8.116;2023-06-22T11:27:57;6.90;;;4.83;;
24163;SDS011;12319;49.204;8.116;2023-06-22T11:30:22;7.70;;;5.78;;
24163;SDS011;12319;49.204;8.116;2023-06-22T11:32:48;9.00;;;5.13;;
24163;SDS011;12319;49.204;8.116;2023-06-22T11:35:13;10.40;;;6.00;;
24163;SDS011;12319;49.204;8.116;2023-06-22T11:37:39;7.55;;;5.68;;
24163;SDS011;12319;49.204;8.116;2023-06-22T11:40:05;6.83;;;5.43;;
24163;SDS011;12319;49.204;8.116;2023-06-22T11:42:33;7.65;;;5.60;;
24163;SDS011;12319;49.204;8.116;2023-06-22T11:44:59;7.60;;;5.28;;
24163;SDS011;12319;49.204;8.116;2023-06-22T11:47:25;7.20;;;5.10;;
24163;SDS011;12319;49.204;8.116;2023-06-22T11:49:50;7.03;;;5.10;;
24163;SDS011;12319;49.204;8.116;2023-06-22T11:52:16;7.65;;;5.45;;
24163;SDS011;12319;49.204;8.116;2023-06-22T11:54:42;6.97;;;4.95;;
24163;SDS011;12319;49.204;8.116;2023-06-22T11:57:08;7.75;;;5.20;;
24163;SDS011;12319;49.204;8.116;2023-06-22T11:59:34;8.10;;;5.43;;
24163;SDS011;12319;49.204;8.116;2023-06-22T12:01:59;6.28;;;4.80;;
24163;SDS011;12319;49.204;8.116;2023-06-22T12:04:25;7.57;;;5.47;;
24163;SDS011;12319;49.204;8.116;2023-06-22T12:06:50;6.10;;;4.80;;
24163;SDS011;12319;49.204;8.116;2023-06-22T12:09:16;6.95;;;4.55;;
24163;SDS011;12319;49.204;8.116;2023-06-22T12:11:41;6.93;;;5.07;;
24163;SDS011;12319;49.204;8.116;2023-06-22T12:14:07;8.17;;;4.87;;
24163;SDS011;12319;49.204;8.116;2023-06-22T12:16:32;9.60;;;5.40;;
24163;SDS011;12319;49.204;8.116;2023-06-22T12:18:58;8.03;;;5.70;;
24163;SDS011;12319;49.204;8.116;2023-06-22T12:21:24;8.50;;;4.70;;
24163;SDS011;12319;49.204;8.116;2023-06-22T12:23:49;8.07;;;5.10;;
24163;SDS011;12319;49.204;8.116;2023-06-22T12:26:15;10.07;;;5.47;;
24163;SDS011;12319;49.204;8.116;2023-06-22T12:28:40;9.27;;;5.97;;
24163;SDS011;12319;49.204;8.116;2023-06-22T12:31:06;8.03;;;5.17;;
24163;SDS011;12319;49.204;8.116;2023-06-22T12:33:31;7.72;;;5.10;;
24163;SDS011;12319;49.204;8.116;2023-06-22T12:35:57;7.63;;;5.07;;
24163;SDS011;12319;49.204;8.116;2023-06-22T12:38:23;7.90;;;4.97;;
24163;SDS011;12319;49.204;8.116;2023-06-22T12:40:50;7.53;;;5.18;;
24163;SDS011;12319;49.204;8.116;2023-06-22T12:43:16;9.52;;;5.95;;
24163;SDS011;12319;49.204;8.116;2023-06-22T12:45:41;9.60;;;5.73;;
24163;SDS011;12319;49.204;8.116;2023-06-22T12:48:07;9.00;;;6.10;;
24163;SDS011;12319;49.204;8.116;2023-06-22T12:50:33;11.57;;;6.28;;
24163;SDS011;12319;49.204;8.116;2023-06-22T12:52:59;7.82;;;5.72;;
24163;SDS011;12319;49.204;8.116;2023-06-22T12:55:26;6.88;;;5.07;;
24163;SDS011;12319;49.204;8.116;2023-06-22T12:57:52;7.57;;;5.57;;
24163;SDS011;12319;49.204;8.116;2023-06-22T13:00:17;6.70;;;4.97;;
24163;SDS011;12319;49.204;8.116;2023-06-22T13:02:43;8.37;;;5.73;;
24163;SDS011;12319;49.204;8.116;2023-06-22T13:05:09;8.70;;;4.95;;
24163;SDS011;12319;49.204;8.116;2023-06-22T13:07:34;7.87;;;5.83;;
24163;SDS011;12319;49.204;8.116;2023-06-22T13:10:00;12.93;;;5.80;;
24163;SDS011;12319;49.204;8.116;2023-06-22T13:12:25;9.30;;;5.80;;
24163;SDS011;12319;49.204;8.116;2023-06-22T13:14:51;8.33;;;5.60;;
24163;SDS011;12319;49.204;8.116;2023-06-22T13:17:16;12.15;;;6.00;;
24163;SDS011;12319;49.204;8.116;2023-06-22T13:19:42;8.90;;;5.43;;
24163;SDS011;12319;49.204;8.116;2023-06-22T13:25:04;9.48;;;6.28;;
24163;SDS011;12319;49.204;8.116;2023-06-22T13:27:31;10.57;;;6.53;;
24163;SDS011;12319;49.204;8.116;2023-06-22T13:29:56;8.37;;;5.60;;
24163;SDS011;12319;49.204;8.116;2023-06-22T13:32:22;9.55;;;5.43;;
24163;SDS011;12319;49.204;8.116;2023-06-22T13:34:48;9.97;;;5.90;;
24163;SDS011;12319;49.204;8.116;2023-06-22T13:37:13;7.00;;;5.17;;
24163;SDS011;12319;49.204;8.116;2023-06-22T13:39:39;9.57;;;5.25;;
24163;SDS011;12319;49.204;8.116;2023-06-22T13:42:04;9.07;;;5.10;;
24163;SDS011;12319;49.204;8.116;2023-06-22T13:44:30;9.77;;;5.03;;
24163;SDS011;12319;49.204;8.116;2023-06-22T13:46:56;11.03;;;5.20;;
24163;SDS011;12319;49.204;8.116;2023-06-22T13:49:21;9.60;;;5.33;;
24163;SDS011;12319;49.204;8.116;2023-06-22T13:51:47;10.80;;;5.70;;
24163;SDS011;12319;49.204;8.116;2023-06-22T13:54:13;8.88;;;5.75;;
24163;SDS011;12319;49.204;8.116;2023-06-22T13:56:40;11.30;;;6.10;;
24163;SDS011;12319;49.204;8.116;2023-06-22T13:59:05;12.55;;;6.75;;
24163;SDS011;12319;49.204;8.116;2023-06-22T14:01:34;11.10;;;6.93;;
24163;SDS011;12319;49.204;8.116;2023-06-22T14:04:00;10.27;;;6.17;;
24163;SDS011;12319;49.204;8.116;2023-06-22T14:06:27;9.43;;;6.03;;
24163;SDS011;12319;49.204;8.116;2023-06-22T14:08:52;8.53;;;5.40;;
24163;SDS011;12319;49.204;8.116;2023-06-22T14:11:18;9.80;;;5.53;;
24163;SDS011;12319;49.204;8.116;2023-06-22T14:13:44;8.60;;;5.70;;
24163;SDS011;12319;49.204;8.116;2023-06-22T14:16:09;9.65;;;6.07;;
24163;SDS011;12319;49.204;8.116;2023-06-22T14:18:35;9.07;;;5.03;;
24163;SDS011;12319;49.204;8.116;2023-06-22T14:21:00;7.00;;;5.57;;
24163;SDS011;12319;49.204;8.116;2023-06-22T14:23:26;7.80;;;5.07;;
24163;SDS011;12319;49.204;8.116;2023-06-22T14:25:52;6.60;;;5.20;;
24163;SDS011;12319;49.204;8.116;2023-06-22T14:28:17;8.57;;;5.70;;
24163;SDS011;12319;49.204;8.116;2023-06-22T14:30:43;9.63;;;5.40;;
24163;SDS011;12319;49.204;8.116;2023-06-22T14:33:09;9.93;;;6.05;;
24163;SDS011;12319;49.204;8.116;2023-06-22T14:35:34;9.00;;;5.53;;
24163;SDS011;12319;49.204;8.116;2023-06-22T14:38:00;7.83;;;5.57;;
24163;SDS011;12319;49.204;8.116;2023-06-22T14:40:25;8.88;;;5.63;;
24163;SDS011;12319;49.204;8.116;2023-06-22T14:42:51;9.80;;;5.90;;
24163;SDS011;12319;49.204;8.116;2023-06-22T14:45:17;9.00;;;5.37;;
24163;SDS011;12319;49.204;8.116;2023-06-22T14:47:42;10.43;;;5.43;;
24163;SDS011;12319;49.204;8.116;2023-06-22T14:50:08;9.80;;;5.53;;
24163;SDS011;12319;49.204;8.116;2023-06-22T14:52:33;10.13;;;6.00;;
24163;SDS011;12319;49.204;8.116;2023-06-22T14:54:59;9.83;;;6.47;;